Time;durP1;ratioP1;P1;durP2;ratioP2;P2;SDS_P1;SDS_P2;PMS_P1;PMS_P2;Temp;Humidity;BMP_temperature;BMP_pressure;BME280_temperature;BME280_humidity;BME280_pressure;Samples;Min_cycle;Max_cycle;Signal;HPM_P1;HPM_P2
2022/04/01 00:00:30;;;;;;;3.50;2.03;;;2.90;99.90;;;;;;4965333;28;20208;-77
2022/04/01 00:02:56;;;;;;;3.30;1.67;;;2.90;99.90;;;;;;4947367;28;20663;-80
2022/04/01 00:05:22;;;;;;;3.40;2.00;;;2.90;99.90;;;;;;4947410;28;20189;-77
2022/04/01 00:07:47;;;;;;;1.87;1.53;;;2.90;99.90;;;;;;4947547;28;20217;-79
2022/04/01 00:10:13;;;;;;;3.03;1.77;;;2.80;99.90;;;;;;4947926;28;20192;-76
2022/04/01 00:12:40;;;;;;;5.33;2.00;;;2.80;99.90;;;;;;4949294;28;20189;-78
2022/04/01 00:15:07;;;;;;;3.87;1.97;;;2.80;99.90;;;;;;4965577;28;20712;-79
2022/04/01 00:17:32;;;;;;;4.70;2.00;;;2.70;99.90;;;;;;4965772;28;20227;-76
2022/04/01 00:19:58;;;;;;;2.93;1.90;;;2.70;99.90;;;;;;4948054;28;20213;-79
2022/04/01 00:22:24;;;;;;;2.57;1.90;;;2.70;99.90;;;;;;4946927;28;20739;-79
2022/04/01 00:24:49;;;;;;;2.10;1.37;;;2.60;99.90;;;;;;4966352;28;20674;-77
2022/04/01 00:27:15;;;;;;;2.83;1.80;;;2.60;99.90;;;;;;4974829;28;20211;-75
2022/04/01 00:29:40;;;;;;;3.20;1.80;;;2.50;99.90;;;;;;4948029;28;20207;-80
2022/04/01 00:32:06;;;;;;;2.03;1.57;;;2.40;99.90;;;;;;4964724;28;20658;-79
2022/04/01 00:34:34;;;;;;;3.93;1.97;;;2.40;99.90;;;;;;4947500;28;20181;-76
2022/04/01 00:37:01;;;;;;;4.20;2.30;;;2.30;99.90;;;;;;4944946;28;20188;-77
2022/04/01 00:39:32;;;;;;;2.70;1.50;;;2.30;99.90;;;;;;4947454;28;20209;-78
2022/04/01 00:42:01;;;;;;;4.47;1.80;;;2.20;99.90;;;;;;4949429;28;20641;-79
2022/04/01 00:44:31;;;;;;;4.10;1.97;;;2.00;99.90;;;;;;4948708;28;20215;-77
2022/04/01 00:46:59;;;;;;;1.80;1.37;;;1.90;99.90;;;;;;4948485;28;20416;-79
2022/04/01 00:49:26;;;;;;;7.73;2.63;;;1.90;99.90;;;;;;4947776;28;20197;-76
2022/04/01 00:51:55;;;;;;;5.33;2.40;;;1.80;99.90;;;;;;4950377;28;20192;-80
2022/04/01 00:54:21;;;;;;;3.63;1.90;;;1.60;99.90;;;;;;4967741;28;20618;-79
2022/04/01 00:56:47;;;;;;;2.73;1.60;;;1.50;99.90;;;;;;4965943;28;20193;-79
2022/04/01 00:59:13;;;;;;;4.97;2.47;;;1.40;99.90;;;;;;4965793;28;20295;-78
2022/04/01 01:01:47;;;;;;;4.70;2.67;;;1.30;99.90;;;;;;4948955;28;20311;-80
2022/04/01 01:04:14;;;;;;;4.37;2.30;;;1.20;99.90;;;;;;4966375;28;20188;-79
2022/04/01 01:06:44;;;;;;;6.10;2.63;;;1.20;99.90;;;;;;4950353;28;20177;-78
2022/04/01 01:09:11;;;;;;;5.13;2.73;;;1.20;99.90;;;;;;4949348;28;20204;-80
2022/04/01 01:11:37;;;;;;;4.20;2.77;;;1.20;99.90;;;;;;4947868;28;20257;-78
2022/04/01 01:14:08;;;;;;;4.47;2.50;;;1.10;99.90;;;;;;4949482;28;20280;-81
2022/04/01 01:16:35;;;;;;;3.73;3.07;;;1.10;99.90;;;;;;4948940;28;20185;-79
2022/04/01 01:19:04;;;;;;;3.57;3.13;;;1.00;99.90;;;;;;4948281;28;20232;-77
2022/04/01 01:21:31;;;;;;;4.83;3.40;;;1.00;99.90;;;;;;4969032;28;20259;-78
2022/04/01 01:24:04;;;;;;;5.17;3.90;;;1.00;99.90;;;;;;4969238;28;20204;-79
2022/04/01 01:26:32;;;;;;;4.47;3.13;;;0.90;99.90;;;;;;4951489;28;20185;-78
2022/04/01 01:28:58;;;;;;;4.77;3.57;;;0.90;99.90;;;;;;4952047;28;20208;-78
2022/04/01 01:31:25;;;;;;;6.70;3.90;;;0.90;99.90;;;;;;4953372;28;20230;-78
2022/04/01 01:33:53;;;;;;;5.90;4.27;;;0.90;99.90;;;;;;4969672;28;20188;-79
2022/04/01 01:36:19;;;;;;;5.80;3.97;;;0.90;99.90;;;;;;4969342;28;20181;-79
2022/04/01 01:38:45;;;;;;;6.97;3.57;;;0.90;99.90;;;;;;4969207;28;20209;-78
2022/04/01 01:41:10;;;;;;;7.40;4.47;;;0.80;99.90;;;;;;4969974;28;20180;-78
2022/04/01 01:43:36;;;;;;;4.70;3.57;;;0.80;99.90;;;;;;4970496;28;20534;-78
2022/04/01 01:46:26;;;;;;;5.97;3.90;;;0.80;99.90;;;;;;4969258;28;20184;-78
2022/04/01 01:48:52;;;;;;;6.00;4.57;;;0.80;99.90;;;;;;4966618;28;20217;-77
2022/04/01 01:56:46;;;;;;;5.10;3.60;;;0.70;99.90;;;;;;4969224;28;20199;-78
2022/04/01 01:59:12;;;;;;;5.03;3.80;;;0.70;99.90;;;;;;4950894;28;20213;-78
2022/04/01 02:01:45;;;;;;;4.43;3.40;;;0.70;99.90;;;;;;4951204;28;20557;-78
2022/04/01 02:04:11;;;;;;;4.63;3.73;;;0.70;99.90;;;;;;4951038;28;20181;-78
2022/04/01 02:06:38;;;;;;;5.30;3.47;;;0.60;99.90;;;;;;4951879;28;20181;-78
2022/04/01 02:09:04;;;;;;;4.30;3.83;;;0.60;99.90;;;;;;4968916;28;20208;-78
2022/04/01 02:11:30;;;;;;;5.77;4.00;;;0.60;99.90;;;;;;4967313;28;20237;-77
2022/04/01 02:13:55;;;;;;;4.70;4.10;;;0.60;99.90;;;;;;4968709;28;20220;-78
2022/04/01 02:16:21;;;;;;;5.23;3.73;;;0.50;99.90;;;;;;4950027;28;20532;-79
2022/04/01 02:18:48;;;;;;;7.33;3.87;;;0.50;99.90;;;;;;4968207;28;20466;-78
2022/04/01 02:21:15;;;;;;;6.20;4.00;;;0.50;99.90;;;;;;4968408;28;20623;-78
2022/04/01 02:23:45;;;;;;;5.20;3.67;;;0.40;99.90;;;;;;4968218;28;20216;-79
2022/04/01 02:26:12;;;;;;;5.07;3.70;;;0.40;99.90;;;;;;4968527;28;20176;-78
2022/04/01 02:28:39;;;;;;;3.90;3.50;;;0.40;99.90;;;;;;4965948;28;20725;-78
2022/04/01 02:31:05;;;;;;;4.37;3.70;;;0.30;99.90;;;;;;4964919;28;20193;-78
2022/04/01 02:33:32;;;;;;;5.07;4.07;;;0.40;99.90;;;;;;4963763;28;20455;-77
2022/04/01 02:35:59;;;;;;;4.80;3.70;;;0.40;99.90;;;;;;4964313;28;20220;-78
2022/04/01 02:38:29;;;;;;;5.10;3.57;;;0.40;99.90;;;;;;4946880;28;20201;-78
2022/04/01 02:40:58;;;;;;;5.30;3.10;;;0.40;99.90;;;;;;4964170;28;20375;-78
2022/04/01 02:43:25;;;;;;;6.43;3.73;;;0.40;99.90;;;;;;4947221;28;20267;-78
2022/04/01 02:45:51;;;;;;;5.33;3.60;;;0.30;99.90;;;;;;4947093;28;20199;-78
2022/04/01 02:48:19;;;;;;;3.57;3.00;;;0.40;99.90;;;;;;4978523;28;20743;-78
2022/04/01 02:50:46;;;;;;;4.60;3.37;;;0.40;99.90;;;;;;4962399;28;20609;-78
2022/04/01 02:53:13;;;;;;;4.40;3.17;;;0.40;99.90;;;;;;4945920;28;20216;-79
2022/04/01 02:55:39;;;;;;;4.00;3.00;;;0.40;99.90;;;;;;4946041;28;20228;-78
2022/04/01 02:58:06;;;;;;;3.57;2.87;;;0.40;99.90;;;;;;4962721;28;20265;-78
2022/04/01 03:00:37;;;;;;;4.70;2.90;;;0.30;99.90;;;;;;4947451;28;20319;-78
2022/04/01 03:03:07;;;;;;;7.70;3.87;;;0.40;99.90;;;;;;4963511;28;20932;-78
2022/04/01 03:05:38;;;;;;;12.13;3.67;;;0.30;99.90;;;;;;4960367;28;20564;-79
2022/04/01 03:08:05;;;;;;;4.50;3.03;;;0.30;99.90;;;;;;4961513;28;20204;-77
2022/04/01 03:10:32;;;;;;;3.50;2.80;;;0.30;99.90;;;;;;4963691;28;20189;-78
2022/04/01 03:12:58;;;;;;;3.87;3.47;;;0.30;99.90;;;;;;4945401;28;20193;-78
2022/04/01 03:15:24;;;;;;;3.73;3.37;;;0.30;99.90;;;;;;4962579;28;20185;-78
2022/04/01 03:17:50;;;;;;;3.57;2.93;;;0.40;99.90;;;;;;4962912;28;20211;-78
2022/04/01 03:20:15;;;;;;;4.83;3.33;;;0.40;99.90;;;;;;4962841;28;20358;-78
2022/04/01 03:22:42;;;;;;;3.00;2.57;;;0.30;99.90;;;;;;4945112;28;20188;-78
2022/04/01 03:25:12;;;;;;;3.27;2.97;;;0.30;99.90;;;;;;4964563;28;20193;-78
2022/04/01 03:27:39;;;;;;;4.10;3.30;;;0.30;99.90;;;;;;4948441;28;20208;-78
2022/04/01 03:30:09;;;;;;;6.03;3.40;;;0.30;99.90;;;;;;4966807;28;20185;-78
2022/04/01 03:32:35;;;;;;;3.67;3.20;;;0.30;99.90;;;;;;4967430;28;20428;-79
2022/04/01 03:35:01;;;;;;;4.73;3.90;;;0.30;99.90;;;;;;4966915;28;20224;-79
2022/04/01 03:37:27;;;;;;;4.63;3.63;;;0.20;99.90;;;;;;4949274;28;20241;-79
2022/04/01 03:39:53;;;;;;;4.47;3.70;;;0.20;99.90;;;;;;4949317;28;20224;-79
2022/04/01 03:42:20;;;;;;;5.20;3.90;;;0.20;99.90;;;;;;4967817;28;20189;-79
2022/04/01 03:44:46;;;;;;;5.50;4.03;;;0.20;99.90;;;;;;4966499;28;20181;-79
2022/04/01 03:47:14;;;;;;;5.57;3.90;;;0.20;99.90;;;;;;4950410;28;20188;-79
2022/04/01 03:49:50;;;;;;;6.03;4.23;;;0.00;99.90;;;;;;4949496;28;20209;-79
2022/04/01 03:52:18;;;;;;;4.93;3.37;;;0.00;99.90;;;;;;4950445;28;20189;-78
2022/04/01 03:54:47;;;;;;;4.83;3.23;;;0.10;99.90;;;;;;4967958;28;20185;-79
2022/04/01 03:57:15;;;;;;;4.40;3.47;;;0.10;99.90;;;;;;4967537;28;20286;-78
2022/04/01 03:59:41;;;;;;;6.63;3.50;;;0.10;99.90;;;;;;4967403;28;20228;-79
2022/04/01 04:02:14;;;;;;;5.73;3.93;;;0.10;99.90;;;;;;4967976;28;20247;-78
2022/04/01 04:04:40;;;;;;;6.20;4.77;;;0.10;99.90;;;;;;4966419;28;20181;-78
2022/04/01 04:07:07;;;;;;;5.27;4.47;;;0.00;99.90;;;;;;4966101;28;20196;-78
2022/04/01 04:09:38;;;;;;;6.77;4.90;;;-0.10;99.90;;;;;;4948174;28;20247;-78
2022/04/01 04:12:06;;;;;;;4.80;4.00;;;-0.20;99.90;;;;;;4941948;28;20185;-79
2022/04/01 04:14:32;;;;;;;6.60;4.53;;;-0.20;99.90;;;;;;4958292;28;20590;-79
2022/04/01 04:17:07;;;;;;;5.90;4.77;;;-0.30;99.90;;;;;;4966752;28;20238;-80
2022/04/01 04:20:08;;;;;;;5.20;4.57;;;-0.30;99.90;;;;;;4941433;28;20201;-79
2022/04/01 04:22:53;;;;;;;6.77;3.87;;;-0.40;99.90;;;;;;5008851;28;20610;-79
2022/04/01 04:25:26;;;;;;;5.97;4.90;;;-0.40;99.90;;;;;;4949696;28;20184;-79
2022/04/01 04:27:57;;;;;;;8.87;5.33;;;-0.40;99.90;;;;;;4967124;28;20222;-78
2022/04/01 04:30:32;;;;;;;6.80;5.40;;;-0.40;99.90;;;;;;4950068;28;20205;-81
2022/04/01 04:33:04;;;;;;;7.93;5.40;;;-0.30;99.90;;;;;;4951346;28;20219;-79
2022/04/01 04:35:30;;;;;;;6.50;5.30;;;-0.40;99.90;;;;;;4967121;28;20177;-79
2022/04/01 04:37:58;;;;;;;6.33;4.97;;;-0.40;99.90;;;;;;4966356;28;20213;-78
2022/04/01 04:40:25;;;;;;;6.63;5.13;;;-0.30;99.90;;;;;;4959001;28;20189;-78
2022/04/01 04:42:53;;;;;;;6.57;4.83;;;-0.30;99.90;;;;;;4950136;28;20662;-81
2022/04/01 04:45:21;;;;;;;8.23;5.30;;;-0.30;99.90;;;;;;4966960;28;20542;-80
2022/04/01 04:47:48;;;;;;;6.90;5.50;;;-0.40;99.90;;;;;;4968745;28;20221;-80
2022/04/01 04:50:16;;;;;;;6.27;5.43;;;-0.40;99.90;;;;;;4949992;28;20340;-80
2022/04/01 04:52:44;;;;;;;7.53;5.10;;;-0.40;99.90;;;;;;4967634;28;20177;-79
2022/04/01 04:55:17;;;;;;;4.93;4.03;;;-0.40;99.90;;;;;;4951055;28;20223;-80
2022/04/01 04:57:44;;;;;;;6.30;4.97;;;-0.50;99.90;;;;;;4953064;28;20720;-80
2022/04/01 05:00:10;;;;;;;8.80;5.70;;;-0.50;99.90;;;;;;4953411;28;20189;-80
2022/04/01 05:02:59;;;;;;;8.90;5.00;;;-0.60;99.90;;;;;;4954568;28;20203;-80
2022/04/01 05:05:36;;;;;;;8.30;5.27;;;-0.60;99.90;;;;;;4952998;28;20177;-77
2022/04/01 05:08:28;;;;;;;6.70;5.37;;;-0.50;99.90;;;;;;4974362;28;20219;-80
2022/04/01 05:11:16;;;;;;;7.77;5.60;;;-0.50;99.90;;;;;;4955458;28;20228;-80
2022/04/01 05:14:01;;;;;;;6.00;5.00;;;-0.40;99.90;;;;;;4952850;28;20181;-80
2022/04/01 05:16:35;;;;;;;7.53;5.60;;;-0.40;99.90;;;;;;4971670;28;20539;-79
2022/04/01 05:19:09;;;;;;;8.47;5.50;;;-0.40;99.90;;;;;;4951779;28;20349;-80
2022/04/01 05:21:41;;;;;;;8.50;5.47;;;-0.50;99.90;;;;;;4968412;28;20534;-78
2022/04/01 05:24:08;;;;;;;7.90;5.03;;;-0.50;99.90;;;;;;4952707;28;20181;-80
2022/04/01 05:26:52;;;;;;;6.47;5.00;;;-0.50;99.90;;;;;;4953335;28;20173;-80
2022/04/01 05:29:25;;;;;;;7.57;5.33;;;-0.40;99.90;;;;;;4964290;28;20221;-79
2022/04/01 05:32:00;;;;;;;10.10;5.37;;;-0.50;99.90;;;;;;4971809;28;20181;-79
2022/04/01 05:34:47;;;;;;;7.73;5.37;;;-0.50;99.90;;;;;;4952705;28;20275;-80
2022/04/01 05:37:15;;;;;;;7.27;5.00;;;-0.50;99.90;;;;;;4970696;28;20216;-81
2022/04/01 05:39:46;;;;;;;7.97;5.53;;;-0.40;99.90;;;;;;4970977;28;20181;-79
2022/04/01 05:42:12;;;;;;;10.17;5.03;;;-0.50;99.90;;;;;;4971387;28;20279;-80
2022/04/01 05:44:40;;;;;;;6.70;4.63;;;-0.50;99.90;;;;;;4952876;28;20189;-79
2022/04/01 05:47:07;;;;;;;8.63;4.57;;;-0.60;99.90;;;;;;4968879;28;20193;-80
2022/04/01 05:49:38;;;;;;;5.77;4.27;;;-0.60;99.90;;;;;;4970813;28;20732;-78
2022/04/01 05:52:04;;;;;;;6.97;3.87;;;-0.50;99.90;;;;;;4971064;28;20596;-79
2022/04/01 05:54:31;;;;;;;5.53;4.07;;;-0.40;99.90;;;;;;4974607;28;20259;-79
2022/04/01 05:56:57;;;;;;;6.17;4.13;;;-0.50;99.90;;;;;;4952539;28;20693;-81
2022/04/01 05:59:23;;;;;;;4.70;3.90;;;-0.40;99.90;;;;;;4969297;28;20203;-79
2022/04/01 06:02:09;;;;;;;6.33;3.90;;;-0.40;99.90;;;;;;4970901;28;20173;-80
2022/04/01 06:04:52;;;;;;;5.27;3.50;;;-0.30;99.90;;;;;;4972461;28;20310;-80
2022/04/01 06:07:23;;;;;;;7.00;4.10;;;-0.30;99.90;;;;;;4968975;28;20197;-80
2022/04/01 06:10:09;;;;;;;5.50;3.50;;;-0.20;99.90;;;;;;4973714;28;20212;-79
2022/04/01 06:12:45;;;;;;;7.97;3.47;;;-0.30;99.90;;;;;;4973629;28;20184;-80
2022/04/01 06:15:48;;;;;;;5.70;3.73;;;-0.30;99.90;;;;;;4951981;28;20183;-79
2022/04/01 06:18:28;;;;;;;5.43;3.07;;;-0.20;99.90;;;;;;4966986;28;20200;-81
2022/04/01 06:20:59;;;;;;;5.63;3.37;;;-0.30;99.90;;;;;;4970643;28;20188;-80
2022/04/01 06:23:36;;;;;;;4.77;3.83;;;-0.20;99.90;;;;;;4967495;28;20196;-79
2022/04/01 06:26:02;;;;;;;5.17;3.17;;;-0.10;99.90;;;;;;4945864;28;20371;-79
2022/04/01 06:28:39;;;;;;;5.57;3.60;;;-0.10;99.90;;;;;;4968702;28;20204;-79
2022/04/01 06:31:06;;;;;;;6.30;3.30;;;0.00;99.90;;;;;;4953601;28;20295;-79
2022/04/01 06:33:55;;;;;;;4.73;3.27;;;0.10;99.90;;;;;;4962589;28;20184;-80
2022/04/01 06:36:37;;;;;;;4.70;3.37;;;0.00;99.90;;;;;;4952439;28;20227;-79
2022/04/01 06:39:08;;;;;;;4.27;3.03;;;0.00;99.90;;;;;;4952970;28;20228;-78
2022/04/01 06:41:47;;;;;;;4.00;2.77;;;0.10;99.90;;;;;;4967757;28;20214;-79
2022/04/01 06:44:13;;;;;;;5.57;3.53;;;0.20;99.90;;;;;;4965629;28;20199;-79
2022/04/01 06:46:39;;;;;;;6.23;3.53;;;0.30;99.90;;;;;;4949232;28;20255;-79
2022/04/01 06:49:08;;;;;;;5.87;3.20;;;0.40;99.90;;;;;;4964697;28;20216;-80
2022/04/01 06:51:38;;;;;;;4.97;3.03;;;0.40;99.90;;;;;;4967247;28;20643;-80
2022/04/01 06:54:04;;;;;;;7.10;3.40;;;0.40;99.90;;;;;;4970234;28;20209;-78
2022/04/01 06:56:30;;;;;;;4.47;2.70;;;0.30;99.90;;;;;;4950578;28;20177;-79
2022/04/01 06:58:56;;;;;;;4.23;3.07;;;0.40;99.90;;;;;;4950892;28;20205;-79
2022/04/01 07:01:22;;;;;;;5.00;3.30;;;0.20;99.90;;;;;;4950436;28;20189;-79
2022/04/01 07:03:47;;;;;;;4.43;3.00;;;0.20;99.90;;;;;;4950569;28;20200;-79
2022/04/01 07:06:13;;;;;;;5.50;2.67;;;0.30;99.90;;;;;;4968281;28;20681;-79
2022/04/01 07:08:39;;;;;;;5.57;3.27;;;0.30;99.90;;;;;;4967468;28;20859;-78
2022/04/01 07:11:05;;;;;;;3.87;2.50;;;0.30;99.90;;;;;;4968010;28;20185;-79
2022/04/01 07:13:30;;;;;;;4.57;2.90;;;0.30;99.90;;;;;;4967602;28;20177;-79
2022/04/01 07:15:56;;;;;;;5.77;2.70;;;0.30;99.90;;;;;;4968503;28;20201;-79
2022/04/01 07:18:22;;;;;;;5.80;3.20;;;0.40;99.90;;;;;;4965327;28;20208;-78
2022/04/01 07:20:48;;;;;;;5.87;2.83;;;0.50;99.90;;;;;;4965946;28;20200;-80
2022/04/01 07:23:15;;;;;;;4.10;3.10;;;0.60;99.90;;;;;;4940658;28;20185;-79
2022/04/01 07:25:40;;;;;;;7.20;3.07;;;0.60;99.90;;;;;;4951804;28;20654;-78
2022/04/01 07:28:09;;;;;;;4.13;2.60;;;0.80;99.90;;;;;;4952201;28;20217;-78
2022/04/01 07:30:34;;;;;;;4.50;2.93;;;0.80;99.90;;;;;;4969772;28;20197;-80
2022/04/01 07:33:00;;;;;;;3.77;2.70;;;1.00;99.90;;;;;;4969969;28;20214;-76
2022/04/01 07:35:26;;;;;;;4.27;3.00;;;1.10;99.90;;;;;;4951324;28;20185;-79
2022/04/01 07:37:51;;;;;;;3.33;2.90;;;1.10;99.90;;;;;;4951506;28;20247;-76
2022/04/01 07:40:18;;;;;;;3.90;3.03;;;1.30;99.90;;;;;;4951743;28;20193;-80
2022/04/01 07:42:44;;;;;;;4.33;2.83;;;1.50;99.90;;;;;;4952435;28;20192;-79
2022/04/01 07:45:10;;;;;;;3.83;2.73;;;1.40;99.90;;;;;;4967963;28;20189;-80
2022/04/01 07:47:36;;;;;;;5.10;2.90;;;1.40;99.90;;;;;;4950237;28;20272;-78
2022/04/01 07:50:04;;;;;;;4.17;2.80;;;1.50;99.90;;;;;;4968579;28;20248;-79
2022/04/01 07:52:32;;;;;;;4.70;3.03;;;1.60;99.90;;;;;;4969088;28;20185;-77
2022/04/01 07:54:57;;;;;;;4.73;3.03;;;1.70;99.90;;;;;;4951204;28;20258;-80
2022/04/01 07:57:23;;;;;;;4.30;2.40;;;1.50;99.90;;;;;;4951124;28;20204;-79
2022/04/01 07:59:49;;;;;;;5.10;3.00;;;1.60;99.90;;;;;;4949896;28;20887;-80
2022/04/01 08:02:15;;;;;;;3.73;2.50;;;1.80;99.90;;;;;;4942251;28;20361;-79
2022/04/01 08:04:41;;;;;;;3.83;2.30;;;1.90;99.90;;;;;;4948940;28;20196;-79
2022/04/01 08:07:10;;;;;;;5.20;2.77;;;2.00;99.90;;;;;;4949749;28;20193;-76
2022/04/01 08:09:36;;;;;;;4.17;3.00;;;2.30;99.90;;;;;;4966926;28;20442;-79
2022/04/01 08:12:03;;;;;;;4.30;2.70;;;2.40;99.90;;;;;;4946960;28;20728;-78
2022/04/01 08:14:28;;;;;;;4.10;2.73;;;2.70;99.90;;;;;;4943831;28;20479;-77
2022/04/01 08:16:54;;;;;;;40.70;22.80;;;2.80;99.90;;;;;;4961699;28;20192;-76
2022/04/01 08:19:22;;;;;;;34.73;19.97;;;2.80;99.90;;;;;;4941135;28;20216;-78
2022/04/01 08:21:49;;;;;;;5.93;3.70;;;2.60;99.90;;;;;;4961342;28;20188;-77
2022/04/01 08:24:16;;;;;;;9.63;5.80;;;2.50;99.90;;;;;;4943718;28;20193;-75
2022/04/01 08:26:43;;;;;;;4.47;3.27;;;2.50;99.90;;;;;;4943639;28;20284;-79
2022/04/01 08:29:08;;;;;;;6.83;4.63;;;2.50;99.90;;;;;;4942970;28;20220;-76
2022/04/01 08:31:34;;;;;;;7.23;5.13;;;2.30;99.90;;;;;;4960562;28;20196;-78
2022/04/01 08:34:00;;;;;;;16.33;10.13;;;2.30;99.90;;;;;;4961464;28;20196;-78
2022/04/01 08:36:26;;;;;;;13.77;9.37;;;2.20;99.90;;;;;;4961033;28;20519;-75
2022/04/01 08:38:52;;;;;;;22.03;12.57;;;2.30;99.90;;;;;;4960774;28;20204;-77
2022/04/01 08:41:20;;;;;;;15.30;9.57;;;2.30;99.90;;;;;;4960862;28;20185;-76
2022/04/01 08:43:47;;;;;;;15.30;9.77;;;2.50;99.90;;;;;;4960468;28;20211;-77
2022/04/01 08:46:14;;;;;;;19.77;11.37;;;2.60;99.90;;;;;;4942399;28;20650;-78
2022/04/01 08:48:41;;;;;;;11.93;7.17;;;2.70;99.90;;;;;;4942053;28;20217;-78
2022/04/01 08:51:07;;;;;;;9.73;5.20;;;2.90;99.90;;;;;;4962232;28;20654;-79
2022/04/01 08:53:37;;;;;;;15.23;7.17;;;2.80;99.90;;;;;;4964233;28;20185;-78
2022/04/01 08:56:04;;;;;;;9.23;5.87;;;2.50;99.90;;;;;;4947690;28;20702;-79
2022/04/01 08:58:30;;;;;;;5.17;4.47;;;2.60;99.90;;;;;;4947434;28;20205;-79
2022/04/01 09:00:58;;;;;;;4.27;3.80;;;2.50;99.90;;;;;;4948923;28;20284;-80
2022/04/01 09:03:24;;;;;;;3.17;2.63;;;2.60;99.90;;;;;;4966265;28;20197;-77
2022/04/01 09:05:58;;;;;;;3.77;3.40;;;2.70;99.90;;;;;;4945292;28;20262;-79
2022/04/01 09:08:33;;;;;;;5.87;5.27;;;2.70;99.90;;;;;;4962729;28;20217;-79
2022/04/01 09:11:05;;;;;;;3.90;2.97;;;2.70;99.90;;;;;;4946851;28;20273;-79
2022/04/01 09:13:32;;;;;;;4.20;3.70;;;2.70;99.90;;;;;;4961176;28;20213;-79
2022/04/01 09:15:59;;;;;;;2.73;2.33;;;2.60;99.90;;;;;;4966257;28;20575;-78
2022/04/01 09:18:42;;;;;;;3.90;2.03;;;2.80;99.90;;;;;;4965767;28;20553;-79
2022/04/01 09:21:13;;;;;;;2.17;1.73;;;2.90;99.90;;;;;;4963848;28;20332;-79
2022/04/01 09:23:44;;;;;;;3.00;1.57;;;2.60;99.90;;;;;;4948121;28;20185;-79
2022/04/01 09:26:10;;;;;;;4.83;2.20;;;2.70;99.90;;;;;;4965182;28;20279;-79
2022/04/01 09:28:40;;;;;;;2.70;1.90;;;3.00;99.90;;;;;;4946948;28;20268;-78
2022/04/01 09:31:12;;;;;;;1.90;1.30;;;3.00;99.90;;;;;;4946244;28;20193;-78
2022/04/01 09:33:44;;;;;;;1.83;1.30;;;3.40;99.90;;;;;;4955530;28;20185;-78
2022/04/01 09:36:33;;;;;;;2.97;1.93;;;3.50;99.90;;;;;;4945714;28;20181;-79
2022/04/01 09:39:16;;;;;;;2.43;1.50;;;3.90;99.90;;;;;;4957345;28;20208;-78
2022/04/01 09:41:52;;;;;;;3.03;1.60;;;4.00;99.90;;;;;;4947372;28;20581;-78
2022/04/01 09:44:44;;;;;;;4.87;1.27;;;3.90;99.90;;;;;;4949088;28;20231;-79
2022/04/01 09:47:10;;;;;;;2.63;1.70;;;4.20;99.90;;;;;;4964137;28;20688;-79
2022/04/01 09:49:39;;;;;;;2.93;1.93;;;4.10;99.90;;;;;;4966794;28;20304;-78
2022/04/01 09:52:26;;;;;;;1.63;1.13;;;4.00;99.90;;;;;;4949630;28;20240;-78
2022/04/01 09:54:54;;;;;;;1.83;1.13;;;3.90;99.90;;;;;;4949317;28;20307;-79
2022/04/01 09:57:22;;;;;;;4.03;1.60;;;3.80;99.90;;;;;;4966867;28;20227;-79
2022/04/01 09:59:49;;;;;;;1.57;1.30;;;4.00;99.90;;;;;;4966798;28;20203;-77
2022/04/01 10:02:15;;;;;;;1.90;1.37;;;4.10;99.90;;;;;;4946865;28;20674;-78
2022/04/01 10:04:41;;;;;;;5.67;1.70;;;4.10;99.90;;;;;;4945922;28;20189;-77
2022/04/01 10:07:07;;;;;;;2.27;1.40;;;4.30;99.90;;;;;;4964281;28;20193;-77
2022/04/01 10:09:33;;;;;;;2.90;2.17;;;4.40;99.90;;;;;;4963444;28;20212;-78
2022/04/01 10:12:02;;;;;;;2.20;1.50;;;4.50;99.80;;;;;;4964512;28;20227;-77
2022/04/01 10:14:29;;;;;;;4.13;1.77;;;4.20;99.00;;;;;;4963386;28;20732;-77
2022/04/01 10:16:55;;;;;;;1.00;0.90;;;4.10;97.20;;;;;;4947524;28;20189;-77
2022/04/01 10:19:29;;;;;;;1.80;1.03;;;4.00;97.70;;;;;;4965684;28;20216;-76
2022/04/01 10:21:56;;;;;;;2.43;1.07;;;4.20;96.90;;;;;;4964326;28;20188;-77
2022/04/01 10:24:29;;;;;;;3.13;2.10;;;4.20;96.60;;;;;;4948060;28;20267;-77
2022/04/01 10:27:04;;;;;;;3.00;1.53;;;4.50;98.40;;;;;;4966350;28;20204;-78
2022/04/01 10:29:34;;;;;;;2.03;1.33;;;4.30;95.50;;;;;;4965931;28;20204;-76
2022/04/01 10:32:37;;;;;;;3.10;1.40;;;4.40;96.20;;;;;;4946907;28;20208;-77
2022/04/01 10:35:06;;;;;;;2.53;2.17;;;4.60;97.00;;;;;;4948393;28;20223;-77
2022/04/01 10:37:33;;;;;;;2.57;1.87;;;4.60;95.20;;;;;;4964396;28;20701;-78
2022/04/01 10:40:20;;;;;;;4.10;1.57;;;4.40;94.90;;;;;;4964025;28;20232;-76
2022/04/01 10:42:47;;;;;;;3.00;1.83;;;4.40;95.60;;;;;;4965020;28;21246;-78
2022/04/01 10:45:16;;;;;;;2.40;1.30;;;4.40;95.30;;;;;;4965127;28;20953;-79
2022/04/01 10:53:37;;;;;;;1.80;1.07;;;4.60;95.10;;;;;;4966465;28;20185;-79
2022/04/01 10:56:21;;;;;;;1.50;1.30;;;4.70;95.30;;;;;;4966532;28;21288;-78
2022/04/01 10:59:14;;;;;;;1.87;1.70;;;4.80;93.90;;;;;;4965992;28;20326;-79
2022/04/01 11:01:43;;;;;;;4.30;2.67;;;4.50;91.40;;;;;;4967011;28;20201;-78
2022/04/01 11:04:12;;;;;;;3.50;2.80;;;4.50;93.20;;;;;;4967320;28;20195;-78
2022/04/01 11:06:54;;;;;;;2.47;2.23;;;4.70;93.60;;;;;;4937305;28;20582;-78
2022/04/01 11:09:41;;;;;;;2.77;1.80;;;4.70;92.60;;;;;;4961208;28;20212;-80
2022/04/01 11:12:25;;;;;;;6.27;2.40;;;4.70;92.40;;;;;;4961818;28;20193;-78
2022/04/01 11:14:55;;;;;;;2.37;1.87;;;4.50;94.50;;;;;;4962437;28;20185;-81
2022/04/01 11:17:21;;;;;;;3.30;2.10;;;4.60;93.60;;;;;;4962515;28;20196;-79
2022/04/01 11:20:18;;;;;;;2.27;1.60;;;4.70;94.10;;;;;;4945527;28;20185;-77
2022/04/01 11:22:53;;;;;;;1.87;1.47;;;4.90;93.80;;;;;;4966392;28;20242;-77
2022/04/01 11:25:24;;;;;;;2.13;1.40;;;5.10;92.30;;;;;;4948966;28;20237;-78
2022/04/01 11:27:56;;;;;;;2.53;1.33;;;5.40;93.90;;;;;;4966650;28;20872;-80
2022/04/01 11:30:26;;;;;;;1.80;1.70;;;5.30;90.60;;;;;;4966458;28;20220;-81
2022/04/01 11:32:54;;;;;;;1.43;1.30;;;5.50;91.40;;;;;;4968841;28;20174;-80
2022/04/01 11:35:24;;;;;;;5.70;1.30;;;5.50;90.20;;;;;;4967058;28;20213;-82
2022/04/01 11:37:50;;;;;;;1.73;1.17;;;5.30;89.70;;;;;;4966977;28;20203;-81
2022/04/01 11:40:18;;;;;;;1.70;1.13;;;5.10;87.00;;;;;;4983758;28;20185;-81
2022/04/01 11:42:53;;;;;;;3.50;1.33;;;5.20;88.30;;;;;;4968762;28;20272;-79
2022/04/01 11:45:20;;;;;;;0.97;0.90;;;5.40;90.30;;;;;;4968672;28;20176;-80
2022/04/01 11:47:46;;;;;;;2.73;1.20;;;5.60;90.10;;;;;;4973101;28;20706;-81
2022/04/01 11:50:15;;;;;;;2.43;1.57;;;5.50;87.30;;;;;;4968317;28;20215;-79
2022/04/01 11:52:42;;;;;;;1.07;0.93;;;5.60;85.00;;;;;;4947325;28;20181;-80
2022/04/01 11:55:23;;;;;;;2.97;1.27;;;5.50;79.50;;;;;;4936299;28;20193;-78
2022/04/01 11:57:49;;;;;;;1.60;0.63;;;5.20;76.90;;;;;;4948586;28;20209;-79
2022/04/01 12:00:20;;;;;;;2.70;1.17;;;5.10;75.90;;;;;;4964334;28;20189;-78
2022/04/01 12:02:48;;;;;;;2.97;1.33;;;5.30;78.10;;;;;;4964727;28;20263;-78
2022/04/01 12:05:14;;;;;;;1.93;1.20;;;5.50;81.60;;;;;;4963218;28;20199;-79
2022/04/01 12:10:27;;;;;;;2.63;1.30;;;5.40;81.30;;;;;;4964390;28;20215;-79
2022/04/01 12:12:58;;;;;;;3.47;1.63;;;5.60;83.60;;;;;;4954400;28;20196;-78
2022/04/01 12:15:31;;;;;;;1.63;1.27;;;5.40;79.30;;;;;;4945975;28;20263;-78
2022/04/01 12:17:56;;;;;;;1.57;1.20;;;5.50;83.90;;;;;;4964092;28;20209;-78
2022/04/01 12:20:22;;;;;;;1.63;1.10;;;5.60;79.90;;;;;;4964107;28;20189;-78
2022/04/01 12:22:51;;;;;;;1.67;1.00;;;5.60;77.30;;;;;;4956328;28;20193;-78
2022/04/01 12:25:17;;;;;;;1.67;1.57;;;5.70;78.30;;;;;;4962087;28;20189;-80
2022/04/01 12:27:57;;;;;;;1.10;0.90;;;5.70;79.50;;;;;;4963554;28;20208;-78
2022/04/01 12:30:31;;;;;;;1.83;1.27;;;5.50;74.00;;;;;;4962859;28;20316;-79
2022/04/01 12:33:00;;;;;;;2.60;1.10;;;5.50;78.80;;;;;;4964378;28;20280;-79
2022/04/01 12:35:26;;;;;;;3.90;1.43;;;5.70;76.10;;;;;;4948978;28;20926;-77
2022/04/01 12:38:10;;;;;;;1.73;1.00;;;5.90;78.00;;;;;;4964080;28;20201;-77
2022/04/01 12:40:44;;;;;;;13.07;6.93;;;6.00;73.70;;;;;;4964420;28;20193;-79
2022/04/01 12:43:31;;;;;;;3.03;2.30;;;6.00;73.90;;;;;;4964298;28;20184;-78
2022/04/01 12:46:03;;;;;;;11.03;6.87;;;6.20;77.60;;;;;;4963830;28;20302;-78
2022/04/01 12:48:29;;;;;;;9.80;6.60;;;6.40;81.60;;;;;;4965512;28;20307;-78
2022/04/01 12:51:02;;;;;;;6.93;2.33;;;6.50;75.50;;;;;;4964521;28;20213;-77
2022/04/01 12:53:29;;;;;;;2.77;2.07;;;6.40;71.40;;;;;;4965077;28;20192;-77
2022/04/01 12:56:17;;;;;;;11.53;7.57;;;6.00;68.10;;;;;;4942828;28;20196;-77
2022/04/01 12:58:47;;;;;;;18.87;10.60;;;5.80;70.90;;;;;;4947734;28;20212;-77
2022/04/01 13:01:13;;;;;;;90.07;44.17;;;5.70;68.90;;;;;;4964934;28;20188;-77
2022/04/01 13:03:46;;;;;;;4.03;3.57;;;5.90;69.80;;;;;;4968831;28;20570;-79
2022/04/01 13:06:12;;;;;;;2.03;1.50;;;6.00;70.40;;;;;;4950471;28;20590;-78
2022/04/01 13:08:38;;;;;;;2.83;1.80;;;5.90;67.70;;;;;;4967930;28;20219;-79
2022/04/01 13:11:36;;;;;;;2.27;1.90;;;6.00;70.80;;;;;;4951009;28;20209;-78
2022/04/01 13:14:04;;;;;;;1.20;1.10;;;6.00;67.80;;;;;;4960164;28;20674;-78
2022/04/01 13:16:39;;;;;;;5.47;1.63;;;5.80;68.50;;;;;;4960735;28;20185;-78
2022/04/01 13:19:26;;;;;;;1.40;1.30;;;5.90;70.40;;;;;;4971740;28;20788;-78
2022/04/01 13:21:54;;;;;;;4.27;1.30;;;6.10;68.70;;;;;;4972402;28;20191;-78
2022/04/01 13:24:23;;;;;;;3.93;1.40;;;6.00;68.40;;;;;;4969217;28;20264;-78